Time;durP1;ratioP1;P1;durP2;ratioP2;P2;SDS_P1;SDS_P2;PMS_P1;PMS_P2;Temp;Humidity;BMP_temperature;BMP_pressure;BME280_temperature;BME280_humidity;BME280_pressure;Samples;Min_cycle;Max_cycle;Signal;HPM_P1;HPM_P2
2023/12/17 00:01:28;;;;;;;13.48;6.90;;;;;;;;;;5055621;28;20394;-80
2023/12/17 00:03:54;;;;;;;12.45;7.28;;;;;;;;;;5053856;28;20787;-81
2023/12/17 00:06:20;;;;;;;15.90;7.17;;;;;;;;;;5054521;28;20425;-81
2023/12/17 00:08:48;;;;;;;14.27;7.60;;;;;;;;;;5055731;28;20401;-80
2023/12/17 00:11:14;;;;;;;10.82;7.10;;;;;;;;;;5055614;28;20169;-80
2023/12/17 00:13:40;;;;;;;10.40;8.00;;;;;;;;;;5055835;28;20177;-80
2023/12/17 00:16:06;;;;;;;14.65;7.18;;;;;;;;;;5056254;28;20203;-81
2023/12/17 00:18:33;;;;;;;13.13;6.60;;;;;;;;;;5055296;28;20233;-80
2023/12/17 00:20:59;;;;;;;18.83;7.00;;;;;;;;;;5055090;28;20257;-81
2023/12/17 00:23:25;;;;;;;12.47;7.10;;;;;;;;;;5057562;28;20599;-80
2023/12/17 00:25:50;;;;;;;10.47;7.27;;;;;;;;;;5058264;28;20408;-81
2023/12/17 00:28:16;;;;;;;14.83;6.50;;;;;;;;;;5057696;28;20407;-81
2023/12/17 00:30:42;;;;;;;14.30;6.40;;;;;;;;;;5058486;28;20411;-80
2023/12/17 00:33:08;;;;;;;12.37;5.90;;;;;;;;;;5058509;28;20408;-81
2023/12/17 00:35:34;;;;;;;10.25;5.88;;;;;;;;;;5057255;28;20467;-81
2023/12/17 00:38:00;;;;;;;16.93;6.40;;;;;;;;;;5059851;28;20544;-81
2023/12/17 00:40:26;;;;;;;8.80;5.70;;;;;;;;;;5058299;28;20553;-80
2023/12/17 00:42:52;;;;;;;13.00;5.90;;;;;;;;;;5061786;28;20408;-81
2023/12/17 00:45:18;;;;;;;14.37;6.10;;;;;;;;;;5058415;28;20420;-81
2023/12/17 00:47:44;;;;;;;9.60;6.37;;;;;;;;;;5058493;28;20998;-80
2023/12/17 00:50:10;;;;;;;15.67;5.87;;;;;;;;;;5059333;28;21205;-81
2023/12/17 00:52:36;;;;;;;11.93;6.20;;;;;;;;;;5057981;28;20578;-80
2023/12/17 00:55:02;;;;;;;9.30;6.30;;;;;;;;;;5057871;28;20412;-80
2023/12/17 00:57:28;;;;;;;11.33;6.80;;;;;;;;;;5057697;28;20459;-80
2023/12/17 00:59:54;;;;;;;16.65;6.47;;;;;;;;;;5057833;28;20461;-80
2023/12/17 01:02:20;;;;;;;7.60;5.80;;;;;;;;;;5057834;28;20186;-80
2023/12/17 01:04:46;;;;;;;9.30;5.40;;;;;;;;;;5057805;28;20413;-81
2023/12/17 01:07:12;;;;;;;9.20;5.90;;;;;;;;;;5057709;28;20829;-80
2023/12/17 01:09:38;;;;;;;10.98;5.70;;;;;;;;;;5058405;28;20460;-80
2023/12/17 01:12:05;;;;;;;9.55;6.10;;;;;;;;;;5056680;28;20178;-81
2023/12/17 01:14:34;;;;;;;6.65;4.90;;;;;;;;;;5057984;28;20173;-80
2023/12/17 01:17:01;;;;;;;9.73;5.72;;;;;;;;;;5057634;28;20223;-80
2023/12/17 01:19:27;;;;;;;11.38;5.30;;;;;;;;;;5058152;28;20538;-80
2023/12/17 01:21:53;;;;;;;10.73;4.90;;;;;;;;;;5058097;28;20584;-81
2023/12/17 01:24:19;;;;;;;8.63;5.40;;;;;;;;;;5057806;28;20179;-80
2023/12/17 01:26:45;;;;;;;9.10;5.90;;;;;;;;;;5057843;28;20767;-80
2023/12/17 01:29:11;;;;;;;8.33;5.53;;;;;;;;;;5057231;28;20606;-80
2023/12/17 01:31:37;;;;;;;9.23;5.37;;;;;;;;;;5057401;28;20426;-80
2023/12/17 01:34:03;;;;;;;12.75;5.57;;;;;;;;;;5057340;28;20920;-79
2023/12/17 01:36:29;;;;;;;6.05;4.60;;;;;;;;;;5056620;28;20217;-80
2023/12/17 01:38:55;;;;;;;7.80;5.00;;;;;;;;;;5057557;28;20630;-81
2023/12/17 01:41:21;;;;;;;6.20;4.70;;;;;;;;;;5057584;28;20828;-81
2023/12/17 01:43:47;;;;;;;7.33;5.07;;;;;;;;;;5057459;28;20415;-80
2023/12/17 01:46:14;;;;;;;7.20;5.30;;;;;;;;;;5057248;28;20455;-80
2023/12/17 01:48:41;;;;;;;7.30;4.82;;;;;;;;;;5057514;28;20445;-80
2023/12/17 01:51:07;;;;;;;10.05;5.00;;;;;;;;;;5057426;28;20531;-80
2023/12/17 01:53:34;;;;;;;8.07;5.00;;;;;;;;;;5056854;28;20283;-80
2023/12/17 01:56:00;;;;;;;7.95;5.15;;;;;;;;;;5056944;28;20208;-81
2023/12/17 01:58:27;;;;;;;8.23;4.60;;;;;;;;;;5057138;28;20177;-81
2023/12/17 02:00:54;;;;;;;7.97;4.97;;;;;;;;;;5057751;28;20178;-80
2023/12/17 02:03:20;;;;;;;6.38;4.50;;;;;;;;;;5056305;28;20237;-80
2023/12/17 02:05:46;;;;;;;9.73;5.30;;;;;;;;;;5056708;28;20177;-80
2023/12/17 02:08:12;;;;;;;7.20;4.97;;;;;;;;;;5056605;28;20412;-80
2023/12/17 02:10:39;;;;;;;8.25;4.60;;;;;;;;;;5057000;28;20169;-80
2023/12/17 02:13:07;;;;;;;7.25;5.13;;;;;;;;;;5056575;28;20206;-80
2023/12/17 02:15:33;;;;;;;5.78;4.45;;;;;;;;;;5057035;28;20561;-80
2023/12/17 02:17:59;;;;;;;9.10;5.90;;;;;;;;;;5057243;28;20169;-80
2023/12/17 02:20:25;;;;;;;7.20;5.67;;;;;;;;;;5056842;28;20170;-80
2023/12/17 02:22:56;;;;;;;9.20;5.40;;;;;;;;;;5057970;28;20415;-79
2023/12/17 02:25:22;;;;;;;10.18;5.38;;;;;;;;;;5055919;28;20502;-81
2023/12/17 02:27:48;;;;;;;8.90;4.80;;;;;;;;;;5056779;28;20232;-81
2023/12/17 02:30:14;;;;;;;10.73;5.57;;;;;;;;;;5056223;28;20676;-81
2023/12/17 02:32:40;;;;;;;7.03;5.10;;;;;;;;;;5056814;28;20251;-81
2023/12/17 02:35:06;;;;;;;8.70;6.10;;;;;;;;;;5056346;28;20402;-81
2023/12/17 02:37:32;;;;;;;9.52;6.53;;;;;;;;;;5056519;28;20470;-81
2023/12/17 02:39:58;;;;;;;9.63;5.60;;;;;;;;;;5054991;28;20250;-82
2023/12/17 02:42:24;;;;;;;9.77;6.75;;;;;;;;;;5056583;28;20816;-81
2023/12/17 02:44:50;;;;;;;7.60;5.50;;;;;;;;;;5056066;28;20196;-81
2023/12/17 02:47:16;;;;;;;8.70;5.63;;;;;;;;;;5055615;28;20411;-81
2023/12/17 02:49:42;;;;;;;8.47;5.70;;;;;;;;;;5056024;28;20762;-81
2023/12/17 02:52:08;;;;;;;7.85;5.10;;;;;;;;;;5055897;28;20405;-81
2023/12/17 02:54:35;;;;;;;10.90;5.03;;;;;;;;;;5055214;28;20184;-81
2023/12/17 02:57:01;;;;;;;6.88;4.95;;;;;;;;;;5055493;28;20502;-82
2023/12/17 02:59:27;;;;;;;8.00;5.40;;;;;;;;;;5056431;28;20192;-81
2023/12/17 03:01:53;;;;;;;6.60;5.20;;;;;;;;;;5055100;28;20183;-81
2023/12/17 03:04:19;;;;;;;7.85;5.55;;;;;;;;;;5055685;28;20893;-81
2023/12/17 03:06:45;;;;;;;7.60;5.10;;;;;;;;;;5056038;28;20228;-81
2023/12/17 03:09:11;;;;;;;8.60;5.45;;;;;;;;;;5055728;28;20879;-81
2023/12/17 03:11:37;;;;;;;8.13;5.40;;;;;;;;;;5055830;28;20180;-81
2023/12/17 03:14:03;;;;;;;9.07;5.45;;;;;;;;;;5054811;28;20193;-81
2023/12/17 03:16:29;;;;;;;10.05;5.50;;;;;;;;;;5055790;28;20217;-81
2023/12/17 03:18:55;;;;;;;9.55;5.55;;;;;;;;;;5054498;28;20181;-81
2023/12/17 03:21:23;;;;;;;8.77;4.95;;;;;;;;;;5055725;28;20702;-81
2023/12/17 03:23:49;;;;;;;8.65;5.97;;;;;;;;;;5055422;28;20187;-81
2023/12/17 03:26:15;;;;;;;6.88;5.03;;;;;;;;;;5055221;28;20189;-82
2023/12/17 03:28:41;;;;;;;6.77;5.43;;;;;;;;;;5054910;28;20177;-81
2023/12/17 03:31:07;;;;;;;6.60;4.85;;;;;;;;;;5055444;28;20410;-82
2023/12/17 03:33:33;;;;;;;9.20;5.30;;;;;;;;;;5055654;28;20177;-80
2023/12/17 03:35:59;;;;;;;8.67;5.00;;;;;;;;;;5055547;28;20463;-81
2023/12/17 03:38:25;;;;;;;6.67;4.90;;;;;;;;;;5054833;28;20404;-81
2023/12/17 03:40:51;;;;;;;6.10;4.57;;;;;;;;;;5055464;28;20749;-81
2023/12/17 03:43:17;;;;;;;7.07;3.88;;;;;;;;;;5054884;28;20649;-81
2023/12/17 03:45:43;;;;;;;5.20;3.93;;;;;;;;;;5055722;28;20272;-81
2023/12/17 03:48:09;;;;;;;5.10;3.88;;;;;;;;;;5054958;28;20411;-81
2023/12/17 03:50:35;;;;;;;4.40;3.77;;;;;;;;;;5055458;28;20187;-81
2023/12/17 03:53:01;;;;;;;4.67;4.17;;;;;;;;;;5054876;28;20978;-85
2023/12/17 03:55:27;;;;;;;5.90;4.03;;;;;;;;;;5055280;28;20408;-82
2023/12/17 03:57:53;;;;;;;6.10;4.10;;;;;;;;;;5057233;28;20633;-81
2023/12/17 04:00:19;;;;;;;5.47;3.57;;;;;;;;;;5059174;28;20538;-81
2023/12/17 04:02:45;;;;;;;3.92;3.30;;;;;;;;;;5059142;28;20990;-81
2023/12/17 04:05:11;;;;;;;6.20;4.05;;;;;;;;;;5059180;28;20165;-81
2023/12/17 04:07:37;;;;;;;4.77;3.87;;;;;;;;;;5058890;28;20175;-81
2023/12/17 04:10:04;;;;;;;4.23;3.13;;;;;;;;;;5058722;28;20911;-82
2023/12/17 04:12:30;;;;;;;6.72;3.58;;;;;;;;;;5059390;28;20771;-81
2023/12/17 04:14:56;;;;;;;5.40;4.00;;;;;;;;;;5059522;28;20256;-81
2023/12/17 04:17:22;;;;;;;5.18;3.92;;;;;;;;;;5058661;28;20460;-82
2023/12/17 04:19:48;;;;;;;5.03;3.50;;;;;;;;;;5058917;28;20176;-81
2023/12/17 04:22:14;;;;;;;5.00;3.80;;;;;;;;;;5058700;28;20182;-81
2023/12/17 04:24:40;;;;;;;5.07;3.60;;;;;;;;;;5059133;28;20404;-81
2023/12/17 04:27:06;;;;;;;5.30;3.83;;;;;;;;;;5058401;28;20182;-81
2023/12/17 04:29:32;;;;;;;5.40;3.67;;;;;;;;;;5059222;28;20216;-81
2023/12/17 04:31:58;;;;;;;3.63;3.33;;;;;;;;;;5058920;28;20524;-81
2023/12/17 04:34:24;;;;;;;4.43;3.27;;;;;;;;;;5058560;28;20211;-81
2023/12/17 04:36:50;;;;;;;5.05;3.22;;;;;;;;;;5058924;28;21059;-81
2023/12/17 04:39:16;;;;;;;5.05;3.53;;;;;;;;;;5057505;28;20182;-81
2023/12/17 04:41:42;;;;;;;3.77;2.90;;;;;;;;;;5058626;28;20190;-81
2023/12/17 04:44:08;;;;;;;3.90;3.20;;;;;;;;;;5058727;28;20421;-81
2023/12/17 04:46:34;;;;;;;3.92;3.50;;;;;;;;;;5058888;28;20270;-81
2023/12/17 04:49:00;;;;;;;3.65;3.15;;;;;;;;;;5058779;28;20596;-81
2023/12/17 04:51:26;;;;;;;3.40;3.10;;;;;;;;;;5058362;28;20673;-81
2023/12/17 04:53:54;;;;;;;4.32;3.63;;;;;;;;;;5058246;28;20275;-81
2023/12/17 04:56:21;;;;;;;4.20;3.25;;;;;;;;;;5058201;28;20209;-81
2023/12/17 04:58:47;;;;;;;4.53;3.38;;;;;;;;;;5058459;28;20548;-81
2023/12/17 05:01:13;;;;;;;4.07;3.20;;;;;;;;;;5058514;28;20169;-81
2023/12/17 05:03:39;;;;;;;4.20;3.80;;;;;;;;;;5058357;28;20192;-81
2023/12/17 05:06:06;;;;;;;3.88;3.45;;;;;;;;;;5058379;28;20407;-85
2023/12/17 05:08:32;;;;;;;7.28;3.95;;;;;;;;;;5056764;28;20672;-81
2023/12/17 05:10:58;;;;;;;5.28;3.10;;;;;;;;;;5058267;28;20635;-81
2023/12/17 05:13:24;;;;;;;4.33;2.90;;;;;;;;;;5057752;28;20262;-81
2023/12/17 05:15:50;;;;;;;4.27;2.97;;;;;;;;;;5058082;28;20467;-81
2023/12/17 05:18:16;;;;;;;6.63;3.57;;;;;;;;;;5057805;28;20502;-81
2023/12/17 05:20:44;;;;;;;3.57;2.80;;;;;;;;;;5058447;28;20719;-81
2023/12/17 05:23:12;;;;;;;5.07;2.70;;;;;;;;;;5057598;28;20421;-82
2023/12/17 05:25:38;;;;;;;3.05;2.70;;;;;;;;;;5057883;28;20721;-81
2023/12/17 05:28:04;;;;;;;3.53;2.83;;;;;;;;;;5057857;28;20178;-81
2023/12/17 05:30:30;;;;;;;4.40;3.45;;;;;;;;;;5057315;28;20415;-81
2023/12/17 05:32:56;;;;;;;3.67;3.30;;;;;;;;;;5058018;28;20179;-81
2023/12/17 05:35:22;;;;;;;2.70;2.50;;;;;;;;;;5057485;28;20465;-81
2023/12/17 05:37:48;;;;;;;3.35;2.30;;;;;;;;;;5057684;28;20757;-81
2023/12/17 05:40:14;;;;;;;3.03;2.33;;;;;;;;;;5057288;28;20183;-81
2023/12/17 05:42:40;;;;;;;3.15;2.78;;;;;;;;;;5057680;28;20418;-81
2023/12/17 05:45:07;;;;;;;3.53;3.10;;;;;;;;;;5057117;28;20189;-81
2023/12/17 05:47:34;;;;;;;2.45;2.05;;;;;;;;;;5057517;28;20404;-81
2023/12/17 05:50:01;;;;;;;2.00;1.80;;;;;;;;;;5057308;28;20184;-81
2023/12/17 05:52:27;;;;;;;2.85;1.77;;;;;;;;;;5057204;28;20217;-81
2023/12/17 05:54:53;;;;;;;3.13;1.92;;;;;;;;;;5057695;28;20177;-81
2023/12/17 05:57:19;;;;;;;3.30;1.60;;;;;;;;;;5057331;28;20216;-81
2023/12/17 05:59:45;;;;;;;2.50;1.67;;;;;;;;;;5057627;28;20735;-81
2023/12/17 06:02:11;;;;;;;2.60;1.97;;;;;;;;;;5056753;28;20422;-81
2023/12/17 06:04:37;;;;;;;3.27;2.13;;;;;;;;;;5056903;28;20438;-82
2023/12/17 06:07:03;;;;;;;2.80;1.73;;;;;;;;;;5057548;28;20419;-81
2023/12/17 06:09:29;;;;;;;3.05;2.00;;;;;;;;;;5057140;28;20876;-81
2023/12/17 06:11:57;;;;;;;2.20;1.97;;;;;;;;;;5056790;28;20184;-81
2023/12/17 06:14:23;;;;;;;2.72;2.28;;;;;;;;;;5056390;28;20430;-81
2023/12/17 06:16:49;;;;;;;1.80;1.60;;;;;;;;;;5056702;28;20269;-81
2023/12/17 06:19:15;;;;;;;2.10;1.70;;;;;;;;;;5056464;28;20407;-81
2023/12/17 06:21:41;;;;;;;3.42;2.53;;;;;;;;;;5055118;28;20414;-81
2023/12/17 06:24:07;;;;;;;3.95;2.60;;;;;;;;;;5056522;28;20183;-81
2023/12/17 06:26:35;;;;;;;4.28;2.35;;;;;;;;;;5056976;28;20186;-81
2023/12/17 06:29:01;;;;;;;5.25;2.92;;;;;;;;;;5055440;28;20182;-81
2023/12/17 06:31:27;;;;;;;2.78;2.50;;;;;;;;;;5056420;28;20274;-81
2023/12/17 06:33:53;;;;;;;5.10;2.40;;;;;;;;;;5056581;28;20220;-81
2023/12/17 06:36:20;;;;;;;3.03;2.70;;;;;;;;;;5056317;28;20460;-81
2023/12/17 06:38:46;;;;;;;3.15;2.30;;;;;;;;;;5056611;28;20189;-81
2023/12/17 06:41:12;;;;;;;2.75;2.53;;;;;;;;;;5056659;28;20173;-82
2023/12/17 06:43:40;;;;;;;3.17;2.38;;;;;;;;;;5056804;28;20178;-80
2023/12/17 06:46:07;;;;;;;2.65;2.30;;;;;;;;;;5056754;28;20234;-80
2023/12/17 06:48:33;;;;;;;2.88;2.58;;;;;;;;;;5056924;28;20707;-80
2023/12/17 06:51:01;;;;;;;3.03;2.75;;;;;;;;;;5056915;28;20184;-81
2023/12/17 06:53:27;;;;;;;3.97;2.75;;;;;;;;;;5055904;28;20231;-81
2023/12/17 06:55:53;;;;;;;4.87;3.10;;;;;;;;;;5056821;28;20223;-80
2023/12/17 06:58:20;;;;;;;3.45;3.00;;;;;;;;;;5056185;28;20471;-81
2023/12/17 07:00:46;;;;;;;7.00;3.25;;;;;;;;;;5056856;28;20184;-81
2023/12/17 07:03:13;;;;;;;3.30;3.00;;;;;;;;;;5056066;28;20544;-88
2023/12/17 07:05:39;;;;;;;4.38;3.90;;;;;;;;;;5056015;28;20537;-81
2023/12/17 07:08:05;;;;;;;5.00;3.70;;;;;;;;;;5055848;28;20653;-80
2023/12/17 07:10:31;;;;;;;4.00;3.55;;;;;;;;;;5055907;28;20181;-81
2023/12/17 07:12:57;;;;;;;4.70;4.13;;;;;;;;;;5056356;28;20191;-80
2023/12/17 07:15:23;;;;;;;5.23;3.77;;;;;;;;;;5055551;28;20825;-81
2023/12/17 07:17:49;;;;;;;5.27;4.30;;;;;;;;;;5056105;28;20408;-81
2023/12/17 07:20:15;;;;;;;5.97;4.03;;;;;;;;;;5055641;28;20405;-81
2023/12/17 07:22:41;;;;;;;7.30;4.63;;;;;;;;;;5056149;28;20400;-81
2023/12/17 07:25:07;;;;;;;6.00;4.20;;;;;;;;;;5056342;28;20415;-80
2023/12/17 07:27:33;;;;;;;5.85;4.88;;;;;;;;;;5054241;28;20415;-81
2023/12/17 07:29:59;;;;;;;8.30;5.30;;;;;;;;;;5055620;28;20265;-81
2023/12/17 07:32:25;;;;;;;6.20;5.00;;;;;;;;;;5054990;28;20418;-81
2023/12/17 07:34:51;;;;;;;6.80;4.93;;;;;;;;;;5055728;28;20494;-80
2023/12/17 07:37:17;;;;;;;6.43;4.43;;;;;;;;;;5055323;28;20958;-81
2023/12/17 07:39:43;;;;;;;4.72;3.97;;;;;;;;;;5055813;28;20189;-81
2023/12/17 07:42:09;;;;;;;6.40;4.43;;;;;;;;;;5056005;28;20275;-80
2023/12/17 07:44:35;;;;;;;6.73;4.33;;;;;;;;;;5054053;28;20432;-80
2023/12/17 07:47:01;;;;;;;4.37;3.37;;;;;;;;;;5055781;28;20411;-81
2023/12/17 07:49:27;;;;;;;4.55;3.25;;;;;;;;;;5055496;28;20412;-81
2023/12/17 07:51:53;;;;;;;5.30;3.90;;;;;;;;;;5055645;28;20223;-81
2023/12/17 07:54:19;;;;;;;6.45;4.00;;;;;;;;;;5055235;28;20998;-81
2023/12/17 07:56:45;;;;;;;4.72;3.72;;;;;;;;;;5055660;28;20231;-80
2023/12/17 07:59:11;;;;;;;6.15;3.92;;;;;;;;;;5055575;28;20191;-80
2023/12/17 08:01:38;;;;;;;6.47;4.40;;;;;;;;;;5055538;28;20182;-80
2023/12/17 08:04:04;;;;;;;4.15;3.65;;;;;;;;;;5055838;28;20942;-81
2023/12/17 08:06:30;;;;;;;5.03;4.30;;;;;;;;;;5055956;28;20316;-81
2023/12/17 08:08:57;;;;;;;6.28;4.15;;;;;;;;;;5055794;28;20189;-81
2023/12/17 08:11:23;;;;;;;4.70;4.03;;;;;;;;;;5055646;28;20206;-81
2023/12/17 08:13:49;;;;;;;4.70;3.88;;;;;;;;;;5055651;28;20181;-80
2023/12/17 08:16:15;;;;;;;4.88;4.10;;;;;;;;;;5055666;28;20228;-81
2023/12/17 08:18:41;;;;;;;5.78;4.60;;;;;;;;;;5055061;28;20190;-80
2023/12/17 08:21:07;;;;;;;7.97;3.50;;;;;;;;;;5055263;28;20194;-80
2023/12/17 08:23:33;;;;;;;7.60;4.33;;;;;;;;;;5055329;28;20173;-81
2023/12/17 08:26:00;;;;;;;4.40;3.60;;;;;;;;;;5055473;28;20775;-80
2023/12/17 08:28:26;;;;;;;4.68;3.67;;;;;;;;;;5055218;28;20412;-81
2023/12/17 08:30:52;;;;;;;5.40;3.90;;;;;;;;;;5055152;28;20182;-81
2023/12/17 08:33:18;;;;;;;3.75;3.33;;;;;;;;;;5055247;28;20395;-88
2023/12/17 08:35:44;;;;;;;4.63;3.40;;;;;;;;;;5055162;28;20256;-80
2023/12/17 08:38:10;;;;;;;6.10;3.42;;;;;;;;;;5055522;28;20438;-80
2023/12/17 08:40:37;;;;;;;4.43;3.50;;;;;;;;;;5055320;28;20538;-80
2023/12/17 08:43:04;;;;;;;5.97;3.63;;;;;;;;;;5057073;28;20408;-81
2023/12/17 08:45:30;;;;;;;4.22;3.08;;;;;;;;;;5058588;28;20185;-81
2023/12/17 08:47:56;;;;;;;3.30;2.80;;;;;;;;;;5058798;28;20230;-80
2023/12/17 08:50:22;;;;;;;4.90;4.00;;;;;;;;;;5058722;28;20181;-81
2023/12/17 08:52:50;;;;;;;5.47;3.80;;;;;;;;;;5058962;28;20459;-80
2023/12/17 08:55:16;;;;;;;3.95;3.47;;;;;;;;;;5058893;28;20528;-80
2023/12/17 08:57:42;;;;;;;4.65;3.20;;;;;;;;;;5058327;28;20213;-80
2023/12/17 09:00:08;;;;;;;4.43;3.55;;;;;;;;;;5059088;28;20188;-80
2023/12/17 09:02:34;;;;;;;3.10;2.65;;;;;;;;;;5058511;28;20240;-80
2023/12/17 09:05:01;;;;;;;3.45;3.10;;;;;;;;;;5058173;28;20577;-80
2023/12/17 09:07:27;;;;;;;3.63;3.15;;;;;;;;;;5058233;28;20275;-81
2023/12/17 09:09:53;;;;;;;4.77;3.20;;;;;;;;;;5058364;28;20589;-81
2023/12/17 09:12:19;;;;;;;3.65;2.83;;;;;;;;;;5057962;28;20415;-80
2023/12/17 09:14:45;;;;;;;3.72;3.00;;;;;;;;;;5058161;28;20177;-81
2023/12/17 09:17:11;;;;;;;4.88;3.13;;;;;;;;;;5058289;28;20201;-80
2023/12/17 09:19:37;;;;;;;3.30;3.00;;;;;;;;;;5058345;28;20273;-80
2023/12/17 09:22:03;;;;;;;7.20;3.20;;;;;;;;;;5058638;28;20404;-81
2023/12/17 09:24:29;;;;;;;4.38;3.53;;;;;;;;;;5058291;28;20436;-80
2023/12/17 09:26:55;;;;;;;3.63;3.33;;;;;;;;;;5057863;28;20580;-80
2023/12/17 09:29:21;;;;;;;4.07;3.13;;;;;;;;;;5058366;28;20184;-88
2023/12/17 09:31:47;;;;;;;3.73;3.37;;;;;;;;;;5058347;28;20539;-80
2023/12/17 09:34:14;;;;;;;3.50;3.20;;;;;;;;;;5058081;28;20417;-80
2023/12/17 09:36:41;;;;;;;4.05;3.28;;;;;;;;;;5056263;28;20212;-80
2023/12/17 09:39:07;;;;;;;6.88;2.90;;;;;;;;;;5057857;28;20193;-80
2023/12/17 09:41:33;;;;;;;3.35;3.05;;;;;;;;;;5057608;28;20181;-80
2023/12/17 09:43:59;;;;;;;3.83;3.33;;;;;;;;;;5057759;28;20192;-83
2023/12/17 09:46:25;;;;;;;3.03;2.72;;;;;;;;;;5056352;28;20419;-85
2023/12/17 09:48:51;;;;;;;3.90;3.50;;;;;;;;;;5056581;28;20182;-84
2023/12/17 09:51:18;;;;;;;3.90;3.47;;;;;;;;;;5056451;28;20535;-82
2023/12/17 09:53:44;;;;;;;3.95;3.20;;;;;;;;;;5054995;28;20732;-83
2023/12/17 09:56:13;;;;;;;4.18;3.30;;;;;;;;;;5056116;28;20205;-83
2023/12/17 09:58:39;;;;;;;4.85;3.72;;;;;;;;;;5054452;28;20178;-82
2023/12/17 10:01:05;;;;;;;3.10;2.80;;;;;;;;;;5056346;28;20268;-82
2023/12/17 10:03:32;;;;;;;3.43;3.13;;;;;;;;;;5055767;28;20903;-82
2023/12/17 10:05:58;;;;;;;3.63;3.22;;;;;;;;;;5056100;28;20413;-82
2023/12/17 10:08:24;;;;;;;3.97;3.30;;;;;;;;;;5056045;28;20268;-85
2023/12/17 10:10:50;;;;;;;2.93;2.63;;;;;;;;;;5056168;28;20232;-82
2023/12/17 10:13:20;;;;;;;3.88;3.00;;;;;;;;;;5056217;28;20401;-82
2023/12/17 10:15:49;;;;;;;3.05;2.75;;;;;;;;;;5056101;28;20189;-82
2023/12/17 10:18:16;;;;;;;2.80;2.50;;;;;;;;;;5056086;28;20264;-82
2023/12/17 10:20:42;;;;;;;2.92;2.63;;;;;;;;;;5054819;28;20192;-82
2023/12/17 10:23:08;;;;;;;2.80;2.60;;;;;;;;;;5039702;28;20182;-83
2023/12/17 10:25:34;;;;;;;3.37;3.07;;;;;;;;;;5055290;28;20245;-82
2023/12/17 10:28:00;;;;;;;5.40;3.37;;;;;;;;;;5055725;28;20408;-82
2023/12/17 10:30:28;;;;;;;3.25;2.95;;;;;;;;;;5055646;28;20415;-83
2023/12/17 10:32:54;;;;;;;3.67;2.85;;;;;;;;;;5056006;28;20182;-82
2023/12/17 10:35:24;;;;;;;2.97;2.58;;;;;;;;;;5055582;28;20182;-82
2023/12/17 10:37:56;;;;;;;3.67;3.35;;;;;;;;;;5055079;28;20197;-82
2023/12/17 10:40:23;;;;;;;4.90;3.55;;;;;;;;;;5055872;28;20186;-82
2023/12/17 10:42:49;;;;;;;4.55;4.15;;;;;;;;;;5057600;28;20192;-83
2023/12/17 10:45:17;;;;;;;4.57;3.88;;;;;;;;;;5074879;28;20230;-82
2023/12/17 10:47:45;;;;;;;4.32;3.75;;;;;;;;;;5075248;28;20176;-82
2023/12/17 10:50:11;;;;;;;3.78;3.38;;;;;;;;;;5075574;28;20210;-82
2023/12/17 10:52:39;;;;;;;4.68;4.28;;;;;;;;;;5075214;28;20274;-83
2023/12/17 10:55:05;;;;;;;5.82;4.55;;;;;;;;;;5075567;28;20165;-82
2023/12/17 10:57:34;;;;;;;6.32;5.00;;;;;;;;;;5075460;28;20276;-83
2023/12/17 11:00:01;;;;;;;5.68;4.80;;;;;;;;;;5075642;28;20176;-82
2023/12/17 11:02:28;;;;;;;6.80;5.15;;;;;;;;;;5074982;28;20176;-84
2023/12/17 11:04:56;;;;;;;6.93;6.18;;;;;;;;;;5073881;28;20273;-82
2023/12/17 11:07:22;;;;;;;7.35;6.07;;;;;;;;;;5075442;28;20172;-82
2023/12/17 11:09:49;;;;;;;9.55;6.80;;;;;;;;;;5074903;28;20378;-82
2023/12/17 11:12:18;;;;;;;6.03;5.43;;;;;;;;;;5075296;28;20217;-82
2023/12/17 11:14:44;;;;;;;7.75;6.15;;;;;;;;;;5073856;28;20272;-83
2023/12/17 11:17:12;;;;;;;9.00;6.85;;;;;;;;;;5074133;28;20247;-82
2023/12/17 11:19:52;;;;;;;8.10;6.15;;;;;;;;;;5074244;28;20231;-83
2023/12/17 11:22:18;;;;;;;7.93;6.10;;;;;;;;;;5073879;28;20523;-82
2023/12/17 11:24:44;;;;;;;6.40;5.60;;;;;;;;;;5074910;28;20177;-82
2023/12/17 11:27:11;;;;;;;5.33;4.60;;;;;;;;;;5075570;28;20219;-82
2023/12/17 11:29:41;;;;;;;8.52;5.13;;;;;;;;;;5074059;28;20417;-83
2023/12/17 11:32:08;;;;;;;7.85;6.65;;;;;;;;;;5074557;28;20208;-82
2023/12/17 11:34:34;;;;;;;7.22;5.80;;;;;;;;;;5074482;28;20169;-82
2023/12/17 11:37:00;;;;;;;7.68;5.97;;;;;;;;;;5074788;28;20199;-82
2023/12/17 11:39:27;;;;;;;5.18;4.50;;;;;;;;;;5074789;28;20181;-82
2023/12/17 11:41:53;;;;;;;6.40;5.15;;;;;;;;;;5075282;28;20185;-82
2023/12/17 11:44:19;;;;;;;6.68;5.63;;;;;;;;;;5075105;28;20185;-82
2023/12/17 11:46:49;;;;;;;8.95;5.72;;;;;;;;;;5073422;28;20632;-81
2023/12/17 11:49:22;;;;;;;5.93;5.07;;;;;;;;;;5075292;28;20187;-82
2023/12/17 11:51:48;;;;;;;7.10;5.03;;;;;;;;;;5075043;28;20185;-82
2023/12/17 11:54:18;;;;;;;5.28;4.75;;;;;;;;;;5073059;28;20582;-82
2023/12/17 11:56:44;;;;;;;7.78;4.95;;;;;;;;;;5074569;28;20539;-82
2023/12/17 11:59:10;;;;;;;6.50;5.00;;;;;;;;;;5073214;28;20184;-82
2023/12/17 12:01:36;;;;;;;5.73;4.53;;;;;;;;;;5074387;28;20399;-82
2023/12/17 12:04:02;;;;;;;7.10;5.10;;;;;;;;;;5074858;28;20442;-82
2023/12/17 12:06:29;;;;;;;5.40;4.90;;;;;;;;;;5074313;28;20447;-82
2023/12/17 12:08:55;;;;;;;5.17;4.37;;;;;;;;;;5074228;28;20173;-81
2023/12/17 12:11:29;;;;;;;5.70;4.60;;;;;;;;;;5074523;28;20814;-81
2023/12/17 12:13:56;;;;;;;5.37;4.87;;;;;;;;;;5073961;28;20402;-81
2023/12/17 12:16:23;;;;;;;5.40;4.40;;;;;;;;;;5074231;28;20450;-81
2023/12/17 12:19:00;;;;;;;4.95;4.18;;;;;;;;;;5077827;28;20963;-81
2023/12/17 12:21:26;;;;;;;5.25;4.28;;;;;;;;;;5078277;28;20207;-81
2023/12/17 12:23:53;;;;;;;5.68;5.15;;;;;;;;;;5078129;28;20227;-81
2023/12/17 12:26:19;;;;;;;5.93;5.13;;;;;;;;;;5078096;28;20530;-82
2023/12/17 12:28:50;;;;;;;6.40;4.72;;;;;;;;;;5077851;28;20413;-82
2023/12/17 12:31:16;;;;;;;5.20;4.28;;;;;;;;;;5078225;28;20209;-82
2023/12/17 12:33:52;;;;;;;6.63;4.00;;;;;;;;;;5077858;28;20173;-82
2023/12/17 12:36:18;;;;;;;6.05;4.20;;;;;;;;;;5076338;28;20204;-83
2023/12/17 12:38:44;;;;;;;6.50;3.97;;;;;;;;;;5077532;28;20207;-82
2023/12/17 12:41:12;;;;;;;5.90;3.67;;;;;;;;;;5077976;28;20738;-82
2023/12/17 12:43:41;;;;;;;7.70;4.45;;;;;;;;;;5077471;28;20407;-81
2023/12/17 12:46:07;;;;;;;4.80;4.25;;;;;;;;;;5077906;28;20180;-82
2023/12/17 12:48:34;;;;;;;4.45;3.90;;;;;;;;;;5077469;28;20184;-87
2023/12/17 12:51:00;;;;;;;3.95;3.15;;;;;;;;;;5077722;28;20181;-82
2023/12/17 12:53:26;;;;;;;4.50;3.63;;;;;;;;;;5077486;28;20265;-82
2023/12/17 12:55:52;;;;;;;5.40;3.77;;;;;;;;;;5076952;28;20266;-82
2023/12/17 12:58:18;;;;;;;5.50;3.83;;;;;;;;;;5077474;28;20403;-82
2023/12/17 13:00:48;;;;;;;6.20;3.60;;;;;;;;;;5077297;28;20462;-82
2023/12/17 13:03:14;;;;;;;4.25;3.80;;;;;;;;;;5077392;28;20761;-82
2023/12/17 13:05:40;;;;;;;5.32;3.95;;;;;;;;;;5075711;28;20177;-82
2023/12/17 13:08:07;;;;;;;5.47;3.80;;;;;;;;;;5077385;28;20179;-82
2023/12/17 13:10:33;;;;;;;4.75;3.78;;;;;;;;;;5076943;28;20206;-82
2023/12/17 13:12:59;;;;;;;4.53;2.88;;;;;;;;;;5077022;28;20188;-82
2023/12/17 13:15:25;;;;;;;4.43;3.22;;;;;;;;;;5076879;28;20189;-81
2023/12/17 13:17:51;;;;;;;5.27;3.43;;;;;;;;;;5076485;28;20573;-82
2023/12/17 13:20:17;;;;;;;5.30;4.00;;;;;;;;;;5075539;28;20768;-82
2023/12/17 13:22:43;;;;;;;8.57;5.17;;;;;;;;;;5076827;28;20450;-82
2023/12/17 13:25:09;;;;;;;10.70;7.00;;;;;;;;;;5076965;28;20419;-82
2023/12/17 13:27:36;;;;;;;4.23;3.47;;;;;;;;;;5077114;28;20411;-82
2023/12/17 13:30:02;;;;;;;10.50;7.13;;;;;;;;;;5075769;28;20403;-82
2023/12/17 13:32:28;;;;;;;7.97;6.28;;;;;;;;;;5076699;28;20176;-82
2023/12/17 13:34:54;;;;;;;4.80;3.60;;;;;;;;;;5076808;28;20177;-82
2023/12/17 13:37:20;;;;;;;6.30;3.70;;;;;;;;;;5077213;28;20507;-82
2023/12/17 13:39:46;;;;;;;3.90;3.13;;;;;;;;;;5076543;28;20539;-82
2023/12/17 13:42:12;;;;;;;6.20;3.57;;;;;;;;;;5077109;28;20399;-82
2023/12/17 13:44:38;;;;;;;6.70;4.17;;;;;;;;;;5076179;28;20422;-82
2023/12/17 13:47:05;;;;;;;3.97;3.17;;;;;;;;;;5076521;28;20411;-82
2023/12/17 13:49:35;;;;;;;3.10;2.80;;;;;;;;;;5076572;28;20501;-82
2023/12/17 13:52:02;;;;;;;3.33;3.00;;;;;;;;;;5075575;28;20899;-82
2023/12/17 13:54:28;;;;;;;3.23;2.93;;;;;;;;;;5076448;28;20476;-82
2023/12/17 13:56:54;;;;;;;3.73;2.70;;;;;;;;;;5076154;28;20463;-82
2023/12/17 13:59:20;;;;;;;3.93;3.23;;;;;;;;;;5076253;28;20470;-82
2023/12/17 14:01:47;;;;;;;8.80;7.33;;;;;;;;;;5075813;28;20450;-82
2023/12/17 14:04:13;;;;;;;5.10;4.63;;;;;;;;;;5075668;28;20411;-82
2023/12/17 14:06:39;;;;;;;4.70;4.30;;;;;;;;;;5076002;28;20435;-82
2023/12/17 14:09:05;;;;;;;6.17;3.03;;;;;;;;;;5075996;28;20418;-82
2023/12/17 14:11:31;;;;;;;5.90;4.30;;;;;;;;;;5075845;28;20411;-84
2023/12/17 14:13:57;;;;;;;4.20;3.07;;;;;;;;;;5075740;28;20418;-82
2023/12/17 14:16:28;;;;;;;4.28;3.40;;;;;;;;;;5075275;28;20487;-82
2023/12/17 14:18:54;;;;;;;5.75;3.30;;;;;;;;;;5075878;28;20185;-82
2023/12/17 14:21:20;;;;;;;2.97;2.67;;;;;;;;;;5075699;28;20177;-82
2023/12/17 14:23:51;;;;;;;3.40;2.78;;;;;;;;;;5084740;28;20521;-82
2023/12/17 14:26:17;;;;;;;3.97;2.83;;;;;;;;;;5075896;28;20226;-81
2023/12/17 14:28:43;;;;;;;5.57;3.67;;;;;;;;;;5075469;28;20582;-82
2023/12/17 14:31:09;;;;;;;3.60;2.43;;;;;;;;;;5075491;28;20180;-81
2023/12/17 14:33:35;;;;;;;3.72;2.78;;;;;;;;;;5074597;28;20410;-81
2023/12/17 14:36:01;;;;;;;4.73;3.03;;;;;;;;;;5075371;28;20212;-81